createdAt,value
2022-12-24T00:01:06.976Z,6.70
2022-12-24T00:03:35.265Z,6.60
2022-12-24T00:06:18.292Z,6.60
2022-12-24T00:08:45.282Z,6.50
2022-12-24T00:11:12.594Z,6.50
2022-12-24T00:13:39.905Z,6.50
2022-12-24T00:16:07.175Z,6.50
2022-12-24T00:18:36.499Z,6.50
2022-12-24T00:21:07.268Z,6.50
2022-12-24T00:23:34.187Z,6.60
2022-12-24T00:26:01.323Z,6.60
2022-12-24T00:28:28.395Z,6.70
2022-12-24T00:30:55.846Z,6.70
2022-12-24T00:33:24.759Z,6.70
2022-12-24T00:35:52.755Z,6.70
2022-12-24T00:38:19.789Z,6.70
2022-12-24T00:40:46.660Z,6.80
2022-12-24T00:43:13.632Z,6.70
2022-12-24T00:45:40.519Z,6.70
2022-12-24T00:48:07.422Z,6.80
2022-12-24T00:50:34.510Z,6.80
2022-12-24T00:53:01.463Z,6.80
2022-12-24T00:55:28.369Z,6.70
2022-12-24T00:57:55.317Z,6.70
2022-12-24T01:00:22.286Z,6.60
2022-12-24T01:02:49.361Z,6.40
2022-12-24T01:05:20.695Z,6.30
2022-12-24T01:07:49.080Z,6.20
2022-12-24T01:10:19.254Z,6.20
2022-12-24T01:12:47.534Z,6.10
2022-12-24T01:15:15.782Z,6.20
2022-12-24T01:17:42.711Z,6.10
2022-12-24T01:20:14.036Z,6.10
2022-12-24T01:22:40.999Z,6.00
2022-12-24T01:25:08.351Z,5.90
2022-12-24T01:27:35.769Z,5.90
2022-12-24T01:30:06.221Z,5.90
2022-12-24T01:32:33.788Z,5.80
2022-12-24T01:40:49.383Z,5.70
2022-12-24T01:46:27.923Z,5.70
2022-12-24T01:49:06.426Z,5.60
2022-12-24T01:55:12.825Z,5.60
2022-12-24T01:58:49.453Z,5.60
2022-12-24T02:01:58.249Z,5.60
2022-12-24T02:04:57.802Z,5.50
2022-12-24T02:07:25.497Z,5.60
2022-12-24T02:09:57.716Z,5.60
2022-12-24T02:12:27.231Z,5.60
2022-12-24T02:14:54.892Z,5.60
2022-12-24T02:17:39.981Z,5.60
2022-12-24T02:20:21.498Z,5.60
2022-12-24T02:23:00.292Z,5.60
2022-12-24T02:25:33.353Z,5.60
2022-12-24T02:28:02.508Z,5.60
2022-12-24T02:30:42.118Z,5.60
2022-12-24T02:33:31.827Z,5.50
2022-12-24T02:36:31.149Z,5.60
2022-12-24T02:39:14.424Z,5.60
2022-12-24T02:42:07.054Z,5.70
2022-12-24T02:44:45.344Z,5.60
2022-12-24T02:47:13.834Z,5.50
2022-12-24T02:49:45.724Z,5.60
2022-12-24T02:52:35.837Z,5.50
2022-12-24T02:55:41.487Z,5.50
2022-12-24T02:58:08.357Z,5.60
2022-12-24T03:01:18.137Z,5.60
2022-12-24T03:04:39.586Z,5.60
2022-12-24T03:07:10.852Z,5.50
2022-12-24T03:09:49.483Z,5.50
2022-12-24T03:12:21.348Z,5.50
2022-12-24T03:14:49.678Z,5.40
2022-12-24T03:17:19.096Z,5.50
2022-12-24T03:19:47.095Z,5.60
2022-12-24T03:22:16.104Z,5.60
2022-12-24T03:24:44.655Z,5.60
2022-12-24T03:27:13.558Z,5.60
2022-12-24T03:29:42.052Z,5.70
2022-12-24T03:32:09.039Z,5.70
2022-12-24T03:34:35.964Z,5.70
2022-12-24T03:37:02.943Z,5.60
2022-12-24T03:39:29.927Z,5.50
2022-12-24T03:41:56.840Z,5.60
2022-12-24T03:44:23.722Z,5.50
2022-12-24T03:46:50.704Z,5.50
2022-12-24T03:49:17.651Z,5.50
2022-12-24T03:51:44.537Z,5.60
2022-12-24T03:54:11.461Z,5.70
2022-12-24T03:56:38.362Z,5.70
2022-12-24T03:59:05.347Z,5.70
2022-12-24T04:01:32.565Z,5.70
2022-12-24T04:03:59.589Z,5.70
2022-12-24T04:06:26.615Z,5.70
2022-12-24T04:08:53.612Z,5.70
2022-12-24T04:11:20.655Z,5.70
2022-12-24T04:13:47.602Z,5.70
2022-12-24T04:16:17.058Z,5.70
2022-12-24T04:18:44.349Z,5.70
2022-12-24T04:21:11.628Z,5.70
2022-12-24T04:23:39.649Z,5.70
2022-12-24T04:26:09.218Z,5.70
2022-12-24T04:28:37.286Z,5.70
2022-12-24T04:31:07.272Z,5.80
2022-12-24T04:33:34.631Z,5.80
2022-12-24T04:36:04.029Z,5.80
2022-12-24T04:38:31.820Z,5.90
2022-12-24T04:41:06.584Z,5.90
2022-12-24T04:43:34.002Z,5.90
2022-12-24T04:46:10.179Z,5.90
2022-12-24T04:48:37.997Z,5.90
2022-12-24T04:51:05.996Z,5.90
2022-12-24T04:53:33.630Z,5.90
2022-12-24T04:56:01.090Z,5.90
2022-12-24T04:58:28.036Z,5.90
2022-12-24T05:00:55.457Z,5.90
2022-12-24T05:03:22.483Z,5.90
2022-12-24T05:05:49.492Z,6.00
2022-12-24T05:08:16.354Z,6.00
2022-12-24T05:10:43.316Z,6.00
2022-12-24T05:13:10.241Z,6.10
2022-12-24T05:15:37.174Z,6.10
2022-12-24T05:18:04.204Z,6.10
2022-12-24T05:20:31.058Z,6.20
2022-12-24T05:23:16.494Z,6.20
2022-12-24T05:26:02.030Z,6.20
2022-12-24T05:28:28.979Z,6.20
2022-12-24T05:30:55.862Z,6.20
2022-12-24T05:33:22.722Z,6.20
2022-12-24T05:35:52.495Z,6.20
2022-12-24T05:38:19.422Z,6.30
2022-12-24T05:40:47.128Z,6.30
2022-12-24T05:43:14.222Z,6.30
2022-12-24T05:45:41.139Z,6.30
2022-12-24T05:48:08.262Z,6.30
2022-12-24T05:50:36.494Z,6.20
2022-12-24T05:53:03.716Z,6.30
2022-12-24T05:55:30.581Z,6.30
2022-12-24T05:57:57.520Z,6.30
2022-12-24T06:00:24.618Z,6.20
2022-12-24T06:02:51.732Z,6.20
2022-12-24T06:05:18.672Z,6.30
2022-12-24T06:07:45.541Z,6.30
2022-12-24T06:10:12.465Z,6.20
2022-12-24T06:12:39.435Z,6.20
2022-12-24T06:15:07.065Z,6.20
2022-12-24T06:17:33.972Z,6.20
2022-12-24T06:20:00.871Z,6.30
2022-12-24T06:22:27.750Z,6.40
2022-12-24T06:24:54.658Z,6.40
2022-12-24T06:27:21.621Z,6.40
2022-12-24T06:29:48.507Z,6.50
2022-12-24T06:32:15.400Z,6.50
2022-12-24T06:34:42.338Z,6.50
2022-12-24T06:37:16.473Z,6.50
2022-12-24T06:39:43.367Z,6.50
2022-12-24T06:42:10.569Z,6.50
2022-12-24T06:44:37.530Z,6.50
2022-12-24T06:47:04.555Z,6.50
2022-12-24T06:49:31.559Z,6.50
2022-12-24T06:51:58.539Z,6.50
2022-12-24T06:54:25.835Z,6.50
2022-12-24T06:56:52.722Z,6.50
2022-12-24T07:04:38.702Z,6.50
2022-12-24T07:07:15.790Z,6.60
2022-12-24T07:09:42.765Z,6.60
2022-12-24T07:12:09.701Z,6.60
2022-12-24T07:14:36.617Z,6.50
2022-12-24T07:17:03.766Z,6.60
2022-12-24T07:19:30.727Z,6.50
2022-12-24T07:21:57.623Z,6.60
2022-12-24T07:24:24.550Z,6.60
2022-12-24T07:26:51.443Z,6.60
2022-12-24T07:29:18.389Z,6.60
2022-12-24T07:31:45.400Z,6.60
2022-12-24T07:34:12.330Z,6.70
2022-12-24T07:36:39.197Z,6.60
2022-12-24T07:39:06.093Z,6.70
2022-12-24T07:41:36.365Z,6.80
2022-12-24T07:44:12.905Z,6.80
2022-12-24T07:46:40.271Z,6.80
2022-12-24T07:49:07.497Z,6.80
2022-12-24T07:51:34.402Z,6.90
2022-12-24T07:54:01.388Z,6.90
2022-12-24T07:56:28.389Z,6.90
2022-12-24T08:28:30.227Z,7.30
2022-12-24T08:30:57.178Z,7.20
2022-12-24T08:33:24.090Z,7.10
2022-12-24T08:35:53.278Z,7.10
2022-12-24T08:38:20.889Z,7.00
2022-12-24T08:40:50.111Z,6.90
2022-12-24T08:43:18.038Z,6.90
2022-12-24T08:45:45.999Z,6.80
2022-12-24T08:48:13.101Z,6.80
2022-12-24T08:50:41.023Z,6.80
2022-12-24T08:53:09.377Z,6.80
2022-12-24T08:55:36.495Z,6.70
2022-12-24T08:58:03.669Z,6.70
2022-12-24T09:00:30.645Z,6.70
2022-12-24T09:02:58.590Z,6.60
2022-12-24T09:05:26.190Z,6.60
2022-12-24T09:07:53.747Z,6.60
2022-12-24T09:10:21.160Z,6.60
2022-12-24T09:12:48.198Z,6.60
2022-12-24T09:15:15.282Z,6.60
2022-12-24T09:17:42.441Z,6.50
2022-12-24T09:20:10.573Z,6.50
2022-12-24T09:22:38.941Z,6.50
2022-12-24T09:25:06.782Z,6.50
2022-12-24T09:27:34.074Z,6.50
2022-12-24T09:30:01.068Z,6.50
2022-12-24T09:32:28.083Z,6.50
2022-12-24T09:34:55.033Z,6.40
2022-12-24T09:37:22.033Z,6.50
2022-12-24T09:39:48.939Z,6.50
2022-12-24T09:42:42.893Z,6.40
2022-12-24T09:45:22.772Z,6.40
2022-12-24T09:47:55.932Z,6.40
2022-12-24T09:50:27.538Z,6.40
2022-12-24T09:52:55.895Z,6.40
2022-12-24T09:55:43.019Z,6.40
2022-12-24T09:58:43.735Z,6.40
2022-12-24T10:01:16.466Z,6.30
2022-12-24T10:03:44.642Z,6.30
2022-12-24T10:06:18.597Z,6.30
2022-12-24T10:09:17.011Z,6.30
2022-12-24T10:11:56.707Z,6.30
2022-12-24T10:14:58.480Z,6.30
2022-12-24T10:17:28.359Z,6.30
2022-12-24T10:20:30.164Z,6.30
2022-12-24T10:23:18.843Z,6.40
2022-12-24T10:26:10.703Z,6.30
2022-12-24T10:28:52.369Z,6.30
2022-12-24T10:31:32.097Z,6.30
2022-12-24T10:34:02.399Z,6.30
2022-12-24T10:36:31.063Z,6.30
2022-12-24T10:38:58.834Z,6.30
2022-12-24T10:41:27.440Z,6.30
2022-12-24T10:43:55.367Z,6.30
2022-12-24T10:46:35.205Z,6.30
2022-12-24T10:49:07.497Z,6.30
2022-12-24T10:51:57.955Z,6.30
2022-12-24T10:54:28.244Z,6.40
2022-12-24T10:57:02.813Z,6.40
2022-12-24T10:59:53.884Z,6.40
2022-12-24T11:02:33.730Z,6.40
2022-12-24T11:05:02.588Z,6.40
2022-12-24T11:07:31.468Z,6.40
2022-12-24T11:10:04.904Z,6.40
2022-12-24T11:12:38.927Z,6.40
2022-12-24T11:15:06.194Z,6.40
2022-12-24T11:17:34.284Z,6.40
2022-12-24T11:20:03.465Z,6.40
2022-12-24T11:22:32.676Z,6.40
2022-12-24T11:25:22.478Z,6.40
2022-12-24T11:27:51.806Z,6.40
2022-12-24T11:30:22.244Z,6.40
2022-12-24T11:32:51.750Z,6.50
2022-12-24T11:35:22.931Z,6.50
2022-12-24T11:38:12.245Z,6.50
2022-12-24T11:40:45.087Z,6.50
2022-12-24T11:43:20.963Z,6.60
2022-12-24T11:45:56.513Z,6.60
2022-12-24T11:48:33.475Z,6.60
2022-12-24T11:51:01.751Z,6.60
2022-12-24T11:53:56.078Z,6.70
2022-12-24T11:56:46.088Z,6.70
2022-12-24T11:59:26.203Z,6.80
2022-12-24T12:02:17.520Z,6.90
2022-12-24T12:04:49.973Z,6.80
2022-12-24T12:07:26.255Z,6.80
2022-12-24T12:10:11.629Z,6.80
2022-12-24T12:12:43.253Z,6.80
2022-12-24T12:15:13.074Z,6.70
2022-12-24T12:17:50.809Z,6.70
2022-12-24T12:20:28.712Z,6.70
2022-12-24T12:23:31.127Z,6.70
2022-12-24T12:25:59.846Z,6.70
2022-12-24T12:28:37.754Z,6.80
2022-12-24T12:31:34.427Z,6.80
2022-12-24T12:34:06.159Z,6.80
2022-12-24T12:36:41.664Z,6.90
2022-12-24T12:39:11.105Z,6.90
2022-12-24T12:42:19.332Z,7.00
2022-12-24T12:44:58.428Z,7.10
2022-12-24T12:47:59.224Z,7.10
2022-12-24T12:50:35.556Z,7.20
2022-12-24T12:53:29.885Z,7.20
2022-12-24T12:56:15.587Z,7.30
2022-12-24T12:59:03.435Z,7.30
2022-12-24T13:02:07.827Z,7.40
2022-12-24T13:05:03.340Z,7.40
2022-12-24T13:07:54.170Z,7.50
2022-12-24T13:10:23.736Z,7.50
2022-12-24T13:13:20.745Z,7.50
2022-12-24T13:15:47.715Z,7.40
2022-12-24T13:18:47.229Z,7.40
2022-12-24T13:21:25.747Z,7.40
2022-12-24T13:24:13.950Z,7.40
2022-12-24T13:26:41.340Z,7.40
2022-12-24T13:29:49.798Z,7.40
2022-12-24T13:32:38.232Z,7.30
2022-12-24T13:35:36.900Z,7.30
2022-12-24T13:38:31.595Z,7.20
2022-12-24T13:41:38.943Z,7.30
2022-12-24T13:44:13.589Z,7.20
2022-12-24T13:46:52.376Z,7.20
2022-12-24T13:49:35.709Z,7.10
2022-12-24T13:52:33.574Z,7.10
2022-12-24T13:55:07.029Z,7.10
2022-12-24T13:57:48.264Z,7.00
2022-12-24T14:00:21.281Z,7.00
2022-12-24T14:02:51.195Z,7.00
2022-12-24T14:05:25.679Z,6.90
2022-12-24T14:07:54.822Z,6.90
2022-12-24T14:10:29.362Z,7.00
2022-12-24T14:12:56.400Z,7.00
2022-12-24T14:15:50.918Z,6.90
2022-12-24T14:18:23.697Z,6.90
2022-12-24T14:20:56.667Z,6.90
2022-12-24T14:23:49.615Z,6.90
2022-12-24T14:26:19.851Z,6.90
2022-12-24T14:29:07.578Z,7.00
2022-12-24T14:31:34.489Z,7.00
2022-12-24T14:34:12.425Z,7.00
2022-12-24T14:36:40.478Z,7.10
2022-12-24T14:39:10.810Z,7.00
2022-12-24T14:41:42.895Z,7.00
2022-12-24T14:44:37.520Z,7.10
2022-12-24T14:47:22.123Z,7.00
2022-12-24T14:49:54.745Z,7.00
2022-12-24T14:55:41.470Z,6.80
2022-12-24T14:58:19.741Z,6.70
2022-12-24T15:00:46.849Z,6.70
2022-12-24T15:03:19.980Z,6.70
2022-12-24T15:05:55.428Z,6.70
2022-12-24T15:08:36.755Z,6.80
2022-12-24T15:11:08.192Z,6.90
2022-12-24T15:13:39.057Z,7.10
2022-12-24T15:16:09.830Z,7.20
2022-12-24T15:18:42.089Z,7.20
2022-12-24T15:21:36.402Z,7.40
2022-12-24T15:24:04.318Z,7.30
2022-12-24T15:26:36.719Z,7.40
2022-12-24T15:29:21.298Z,7.30
2022-12-24T15:31:54.476Z,7.30
2022-12-24T15:34:42.807Z,7.30
2022-12-24T15:37:21.682Z,7.30
2022-12-24T15:40:00.481Z,7.30
2022-12-24T15:42:28.536Z,7.30
2022-12-24T15:45:12.778Z,7.40
2022-12-24T15:47:57.282Z,7.30
2022-12-24T15:50:45.291Z,7.30
2022-12-24T15:53:18.063Z,7.40
2022-12-24T15:56:09.063Z,7.50
2022-12-24T15:58:39.972Z,7.60
2022-12-24T16:01:25.089Z,7.50
2022-12-24T16:03:52.105Z,7.50
2022-12-24T16:06:19.686Z,7.50
2022-12-24T16:08:47.499Z,7.50
2022-12-24T16:11:35.364Z,7.50
2022-12-24T16:14:18.902Z,7.60
2022-12-24T16:16:50.714Z,7.70
2022-12-24T16:19:23.053Z,7.80
2022-12-24T16:21:58.742Z,7.90
2022-12-24T16:24:29.066Z,8.00
2022-12-24T16:26:57.827Z,8.10
2022-12-24T16:29:24.764Z,8.10
2022-12-24T16:31:52.817Z,8.10
2022-12-24T16:34:23.916Z,8.10
2022-12-24T16:36:50.850Z,8.10
2022-12-24T16:39:30.592Z,8.10
2022-12-24T16:42:21.048Z,8.20
2022-12-24T16:44:48.533Z,8.20
2022-12-24T16:47:22.602Z,8.30
2022-12-24T16:49:50.448Z,8.30
2022-12-24T16:52:26.318Z,8.30
2022-12-24T16:54:53.342Z,8.30
2022-12-24T16:57:22.227Z,8.30
2022-12-24T16:59:49.562Z,8.40
2022-12-24T17:02:22.266Z,8.40
2022-12-24T17:04:49.495Z,8.40
2022-12-24T17:07:18.740Z,8.40
2022-12-24T17:09:45.840Z,8.40
2022-12-24T17:12:13.828Z,8.40
2022-12-24T17:14:42.290Z,8.40
2022-12-24T17:17:27.968Z,8.40
2022-12-24T17:19:55.934Z,8.50
2022-12-24T17:22:23.682Z,8.50
2022-12-24T17:24:50.696Z,8.50
2022-12-24T17:27:17.668Z,8.50
2022-12-24T17:29:44.665Z,8.60
2022-12-24T17:32:11.683Z,8.50
2022-12-24T17:34:39.570Z,8.60
2022-12-24T17:37:06.467Z,8.60
2022-12-24T17:39:33.423Z,8.50
2022-12-24T17:42:00.279Z,8.50
2022-12-24T17:44:27.493Z,8.50
2022-12-24T17:46:54.523Z,8.50
2022-12-24T17:49:22.026Z,8.50
2022-12-24T17:57:38.323Z,8.50
2022-12-24T18:00:06.125Z,8.50
2022-12-24T18:02:33.229Z,8.50
2022-12-24T18:05:00.357Z,8.60
2022-12-24T18:07:27.280Z,8.60
2022-12-24T18:09:54.192Z,8.60
2022-12-24T18:12:21.120Z,8.60
2022-12-24T18:14:48.027Z,8.60
2022-12-24T18:17:14.951Z,8.60
2022-12-24T18:19:41.920Z,8.60
2022-12-24T18:22:08.857Z,8.60
2022-12-24T18:24:35.734Z,8.60
2022-12-24T18:27:03.062Z,8.60
2022-12-24T18:29:30.009Z,8.70
2022-12-24T18:31:57.039Z,8.70
2022-12-24T18:34:24.106Z,8.70
2022-12-24T18:36:55.090Z,8.70
2022-12-24T18:39:22.785Z,8.70
2022-12-24T18:41:49.729Z,8.70
2022-12-24T18:44:22.562Z,8.70
2022-12-24T18:46:51.801Z,8.70
2022-12-24T18:49:19.048Z,8.70
2022-12-24T18:51:45.937Z,8.70
2022-12-24T18:54:12.873Z,8.70
2022-12-24T18:56:39.844Z,8.60
2022-12-24T18:59:06.959Z,8.60
2022-12-24T19:01:35.469Z,8.60
2022-12-24T19:04:02.999Z,8.60
2022-12-24T19:06:30.346Z,8.60
2022-12-24T19:08:59.692Z,8.60
2022-12-24T19:11:30.252Z,8.70
2022-12-24T19:14:00.643Z,8.70
2022-12-24T19:16:29.690Z,8.70
2022-12-24T19:18:56.948Z,8.70
2022-12-24T19:21:23.969Z,8.70
2022-12-24T19:23:51.855Z,8.70
2022-12-24T19:26:20.367Z,8.70
2022-12-24T19:28:50.939Z,8.70
2022-12-24T19:31:34.595Z,8.60
2022-12-24T19:34:16.870Z,8.60
2022-12-24T19:36:50.984Z,8.60
2022-12-24T19:39:29.957Z,8.50
2022-12-24T19:41:59.754Z,8.50
2022-12-24T19:44:26.730Z,8.50
2022-12-24T19:46:53.674Z,8.50
2022-12-24T19:49:20.632Z,8.40
2022-12-24T19:51:47.529Z,8.50
2022-12-24T19:54:19.022Z,8.40
2022-12-24T19:56:46.944Z,8.40
2022-12-24T19:59:13.939Z,8.50
2022-12-24T20:01:41.067Z,8.50
2022-12-24T20:04:08.194Z,8.50
2022-12-24T20:06:35.633Z,8.50
2022-12-24T20:09:05.515Z,8.50
2022-12-24T20:11:32.526Z,8.50
2022-12-24T20:14:02.485Z,8.50
2022-12-24T20:16:30.198Z,8.50
2022-12-24T20:19:00.782Z,8.50
2022-12-24T20:21:28.476Z,8.50
2022-12-24T20:23:55.862Z,8.60
2022-12-24T20:26:26.147Z,8.60
2022-12-24T20:28:53.695Z,8.70
2022-12-24T20:31:26.786Z,8.70
2022-12-24T20:33:53.817Z,8.80
2022-12-24T20:36:22.278Z,8.80
2022-12-24T20:38:49.433Z,8.80
2022-12-24T20:41:19.233Z,8.80
2022-12-24T20:43:48.683Z,8.80
2022-12-24T20:46:17.785Z,8.80
2022-12-24T20:48:44.732Z,8.80
2022-12-24T20:51:23.256Z,8.80
2022-12-24T20:53:56.874Z,8.80
2022-12-24T20:56:24.559Z,8.80
2022-12-24T20:58:51.939Z,8.80
2022-12-24T21:01:21.878Z,8.80
2022-12-24T21:03:48.935Z,8.70
2022-12-24T21:06:18.024Z,8.70
2022-12-24T21:08:46.433Z,8.80
2022-12-24T21:11:32.903Z,8.80
2022-12-24T21:14:02.166Z,8.70
2022-12-24T21:16:30.941Z,8.60
2022-12-24T21:18:57.971Z,8.60
2022-12-24T21:21:24.879Z,8.50
2022-12-24T21:23:52.138Z,8.50
2022-12-24T21:26:19.194Z,8.50
2022-12-24T21:28:46.467Z,8.50
2022-12-24T21:31:14.934Z,8.50
2022-12-24T21:33:42.562Z,8.50
2022-12-24T21:36:11.931Z,8.50
2022-12-24T21:38:39.020Z,8.40
2022-12-24T21:41:12.223Z,8.40
2022-12-24T21:43:39.861Z,8.40
2022-12-24T21:46:09.084Z,8.40
2022-12-24T21:48:55.379Z,8.40
2022-12-24T21:51:23.887Z,8.40
2022-12-24T21:54:09.827Z,8.40
2022-12-24T21:56:57.217Z,8.40
2022-12-24T21:59:27.111Z,8.30
2022-12-24T22:01:55.293Z,8.30
2022-12-24T22:04:22.599Z,8.20
2022-12-24T22:07:08.066Z,8.20
2022-12-24T22:09:54.019Z,8.20
2022-12-24T22:12:21.015Z,8.10
2022-12-24T22:14:47.991Z,8.10
2022-12-24T22:17:19.810Z,8.10
2022-12-24T22:19:50.188Z,8.10
2022-12-24T22:22:17.237Z,8.10
2022-12-24T22:24:44.244Z,8.10
2022-12-24T22:27:11.476Z,8.10
2022-12-24T22:29:38.418Z,8.10
2022-12-24T22:32:05.706Z,8.10
2022-12-24T22:34:33.043Z,8.10
2022-12-24T22:36:59.934Z,8.00
2022-12-24T22:39:26.923Z,8.10
2022-12-24T22:41:53.872Z,8.00
2022-12-24T22:44:20.723Z,8.00
2022-12-24T22:46:47.638Z,8.00
2022-12-24T22:49:14.944Z,8.00
2022-12-24T22:51:41.843Z,7.90
2022-12-24T22:54:08.734Z,7.90
2022-12-24T22:56:40.660Z,7.90
2022-12-24T22:59:09.544Z,7.80
2022-12-24T23:01:39.884Z,7.80
2022-12-24T23:04:07.396Z,7.80
2022-12-24T23:06:35.045Z,7.80
2022-12-24T23:09:03.995Z,7.70
2022-12-24T23:11:31.108Z,7.70
2022-12-24T23:14:16.473Z,7.70
2022-12-24T23:16:43.541Z,7.70
2022-12-24T23:19:10.873Z,7.70
2022-12-24T23:21:38.568Z,7.60
2022-12-24T23:24:06.018Z,7.60
2022-12-24T23:26:32.908Z,7.60
2022-12-24T23:28:59.939Z,7.60
2022-12-24T23:31:27.163Z,7.70
2022-12-24T23:33:54.294Z,7.70
2022-12-24T23:36:21.410Z,7.60
2022-12-24T23:38:48.817Z,7.60
2022-12-24T23:41:18.070Z,7.60
2022-12-24T23:43:45.641Z,7.60
2022-12-24T23:46:17.635Z,7.60
2022-12-24T23:48:46.036Z,7.60
2022-12-24T23:51:16.294Z,7.60
2022-12-24T23:53:43.738Z,7.60
2022-12-24T23:56:11.718Z,7.60
2022-12-24T23:58:40.686Z,7.70
